sensor_id;sensor_type;location;lat;lon;timestamp;temperature;humidity
28175;SHT30;59417;44.788;10.334;2023-10-19T00:00:41;12.97;84.00
28175;SHT30;59417;44.788;10.334;2023-10-19T00:03:13;12.99;83.96
28175;SHT30;59417;44.788;10.334;2023-10-19T00:05:38;13.00;83.83
28175;SHT30;59417;44.788;10.334;2023-10-19T00:08:06;12.87;83.98
28175;SHT30;59417;44.788;10.334;2023-10-19T00:10:52;12.90;84.03
28175;SHT30;59417;44.788;10.334;2023-10-19T00:13:28;12.84;83.97
28175;SHT30;59417;44.788;10.334;2023-10-19T00:15:55;12.82;83.92
28175;SHT30;59417;44.788;10.334;2023-10-19T00:18:24;12.80;83.78
28175;SHT30;59417;44.788;10.334;2023-10-19T00:20:52;12.92;83.63
28175;SHT30;59417;44.788;10.334;2023-10-19T00:23:20;12.82;83.45
28175;SHT30;59417;44.788;10.334;2023-10-19T00:26:12;12.86;83.59
28175;SHT30;59417;44.788;10.334;2023-10-19T00:28:53;12.77;83.75
28175;SHT30;59417;44.788;10.334;2023-10-19T00:31:22;12.79;83.76
28175;SHT30;59417;44.788;10.334;2023-10-19T00:33:51;12.75;83.50
28175;SHT30;59417;44.788;10.334;2023-10-19T00:36:17;12.75;83.61
28175;SHT30;59417;44.788;10.334;2023-10-19T00:38:46;12.82;83.52
28175;SHT30;59417;44.788;10.334;2023-10-19T00:41:15;12.89;83.27
28175;SHT30;59417;44.788;10.334;2023-10-19T00:43:47;12.90;82.70
28175;SHT30;59417;44.788;10.334;2023-10-19T00:46:16;12.86;82.74
28175;SHT30;59417;44.788;10.334;2023-10-19T00:48:48;12.77;83.20
28175;SHT30;59417;44.788;10.334;2023-10-19T00:51:22;12.87;83.13
28175;SHT30;59417;44.788;10.334;2023-10-19T00:54:15;12.99;83.28
28175;SHT30;59417;44.788;10.334;2023-10-19T00:56:43;13.00;83.29
28175;SHT30;59417;44.788;10.334;2023-10-19T00:59:21;12.93;83.16
28175;SHT30;59417;44.788;10.334;2023-10-19T01:01:54;12.93;83.14
28175;SHT30;59417;44.788;10.334;2023-10-19T01:04:22;12.84;83.41
28175;SHT30;59417;44.788;10.334;2023-10-19T01:06:49;12.86;83.47
28175;SHT30;59417;44.788;10.334;2023-10-19T01:09:44;12.84;83.37
28175;SHT30;59417;44.788;10.334;2023-10-19T01:12:10;12.86;83.39
28175;SHT30;59417;44.788;10.334;2023-10-19T01:17:47;12.96;83.48
28175;SHT30;59417;44.788;10.334;2023-10-19T01:20:21;12.80;83.94
28175;SHT30;59417;44.788;10.334;2023-10-19T01:23:01;12.66;84.23
28175;SHT30;59417;44.788;10.334;2023-10-19T01:25:57;12.80;83.96
28175;SHT30;59417;44.788;10.334;2023-10-19T01:30:54;12.56;84.84
28175;SHT30;59417;44.788;10.334;2023-10-19T01:33:21;12.83;84.59
28175;SHT30;59417;44.788;10.334;2023-10-19T01:35:48;12.86;84.27
28175;SHT30;59417;44.788;10.334;2023-10-19T01:38:33;12.92;83.82
28175;SHT30;59417;44.788;10.334;2023-10-19T01:41:05;12.90;83.74
28175;SHT30;59417;44.788;10.334;2023-10-19T01:43:41;12.82;83.58
28175;SHT30;59417;44.788;10.334;2023-10-19T01:46:09;12.79;83.44
28175;SHT30;59417;44.788;10.334;2023-10-19T01:48:40;12.79;83.47
28175;SHT30;59417;44.788;10.334;2023-10-19T01:51:07;12.80;83.66
28175;SHT30;59417;44.788;10.334;2023-10-19T01:53:37;12.84;83.77
28175;SHT30;59417;44.788;10.334;2023-10-19T01:56:09;12.93;83.78
28175;SHT30;59417;44.788;10.334;2023-10-19T01:58:36;13.00;83.60
28175;SHT30;59417;44.788;10.334;2023-10-19T02:01:03;12.99;83.68
28175;SHT30;59417;44.788;10.334;2023-10-19T02:03:53;12.90;83.81
28175;SHT30;59417;44.788;10.334;2023-10-19T02:06:21;12.86;83.72
28175;SHT30;59417;44.788;10.334;2023-10-19T02:08:58;12.87;83.64
28175;SHT30;59417;44.788;10.334;2023-10-19T02:11:35;12.82;83.66
28175;SHT30;59417;44.788;10.334;2023-10-19T02:14:08;12.73;84.26
28175;SHT30;59417;44.788;10.334;2023-10-19T02:16:46;12.80;84.10
28175;SHT30;59417;44.788;10.334;2023-10-19T02:19:19;12.59;84.84
28175;SHT30;59417;44.788;10.334;2023-10-19T02:21:50;12.73;83.90
28175;SHT30;59417;44.788;10.334;2023-10-19T02:24:17;12.73;83.46
28175;SHT30;59417;44.788;10.334;2023-10-19T02:26:44;12.62;84.48
28175;SHT30;59417;44.788;10.334;2023-10-19T02:29:10;12.63;84.69
28175;SHT30;59417;44.788;10.334;2023-10-19T02:31:40;12.62;84.82
28175;SHT30;59417;44.788;10.334;2023-10-19T02:34:07;12.69;84.97
28175;SHT30;59417;44.788;10.334;2023-10-19T02:36:35;12.76;84.86
28175;SHT30;59417;44.788;10.334;2023-10-19T02:39:06;12.76;84.91
28175;SHT30;59417;44.788;10.334;2023-10-19T02:41:40;12.70;84.87
28175;SHT30;59417;44.788;10.334;2023-10-19T02:44:14;12.83;84.77
28175;SHT30;59417;44.788;10.334;2023-10-19T02:46:46;12.86;84.74
28175;SHT30;59417;44.788;10.334;2023-10-19T02:49:13;12.77;84.84
28175;SHT30;59417;44.788;10.334;2023-10-19T02:51:42;12.77;84.91
28175;SHT30;59417;44.788;10.334;2023-10-19T02:54:15;12.80;84.89
28175;SHT30;59417;44.788;10.334;2023-10-19T02:56:53;12.82;84.74
28175;SHT30;59417;44.788;10.334;2023-10-19T02:59:23;12.80;84.76
28175;SHT30;59417;44.788;10.334;2023-10-19T03:01:59;12.83;84.80
28175;SHT30;59417;44.788;10.334;2023-10-19T03:04:32;12.73;85.38
28175;SHT30;59417;44.788;10.334;2023-10-19T03:07:04;12.72;85.49
28175;SHT30;59417;44.788;10.334;2023-10-19T03:09:30;12.84;85.21
28175;SHT30;59417;44.788;10.334;2023-10-19T03:12:03;12.75;85.10
28175;SHT30;59417;44.788;10.334;2023-10-19T03:14:31;12.72;85.38
28175;SHT30;59417;44.788;10.334;2023-10-19T03:16:58;12.77;85.19
28175;SHT30;59417;44.788;10.334;2023-10-19T03:19:27;12.96;84.61
28175;SHT30;59417;44.788;10.334;2023-10-19T03:21:53;12.93;84.17
28175;SHT30;59417;44.788;10.334;2023-10-19T03:24:26;12.96;83.99
28175;SHT30;59417;44.788;10.334;2023-10-19T03:27:08;12.70;84.80
28175;SHT30;59417;44.788;10.334;2023-10-19T03:29:50;12.68;84.99
28175;SHT30;59417;44.788;10.334;2023-10-19T03:32:25;12.77;84.92
28175;SHT30;59417;44.788;10.334;2023-10-19T03:34:52;12.60;85.09
28175;SHT30;59417;44.788;10.334;2023-10-19T03:37:25;12.60;85.38
28175;SHT30;59417;44.788;10.334;2023-10-19T03:39:52;12.62;85.51
28175;SHT30;59417;44.788;10.334;2023-10-19T03:42:21;12.68;85.15
28175;SHT30;59417;44.788;10.334;2023-10-19T03:44:50;12.63;85.17
28175;SHT30;59417;44.788;10.334;2023-10-19T03:47:19;12.58;85.60
28175;SHT30;59417;44.788;10.334;2023-10-19T03:50:05;12.68;85.45
28175;SHT30;59417;44.788;10.334;2023-10-19T03:52:39;12.66;85.50
28175;SHT30;59417;44.788;10.334;2023-10-19T03:55:06;12.58;85.96
28175;SHT30;59417;44.788;10.334;2023-10-19T03:57:37;12.63;86.12
28175;SHT30;59417;44.788;10.334;2023-10-19T04:00:06;12.68;86.19
28175;SHT30;59417;44.788;10.334;2023-10-19T04:02:41;12.69;86.20
28175;SHT30;59417;44.788;10.334;2023-10-19T04:05:10;12.75;85.93
28175;SHT30;59417;44.788;10.334;2023-10-19T04:07:39;12.68;86.04
28175;SHT30;59417;44.788;10.334;2023-10-19T04:10:10;12.92;85.29
28175;SHT30;59417;44.788;10.334;2023-10-19T04:12:55;12.86;84.88
28175;SHT30;59417;44.788;10.334;2023-10-19T04:15:22;12.72;85.49
28175;SHT30;59417;44.788;10.334;2023-10-19T04:17:48;12.73;85.78
28175;SHT30;59417;44.788;10.334;2023-10-19T04:20:16;12.66;85.98
28175;SHT30;59417;44.788;10.334;2023-10-19T04:22:41;12.68;86.24
28175;SHT30;59417;44.788;10.334;2023-10-19T04:25:07;12.73;86.18
28175;SHT30;59417;44.788;10.334;2023-10-19T04:27:34;12.79;85.82
28175;SHT30;59417;44.788;10.334;2023-10-19T04:30:02;12.82;85.63
28175;SHT30;59417;44.788;10.334;2023-10-19T04:32:29;12.77;85.76
28175;SHT30;59417;44.788;10.334;2023-10-19T04:34:57;12.75;85.71
28175;SHT30;59417;44.788;10.334;2023-10-19T04:37:24;12.75;85.67
28175;SHT30;59417;44.788;10.334;2023-10-19T04:39:50;12.77;85.61
28175;SHT30;59417;44.788;10.334;2023-10-19T04:42:16;12.86;85.24
28175;SHT30;59417;44.788;10.334;2023-10-19T04:44:41;12.77;85.75
28175;SHT30;59417;44.788;10.334;2023-10-19T04:47:08;12.75;85.74
28175;SHT30;59417;44.788;10.334;2023-10-19T04:49:33;12.75;85.72
28175;SHT30;59417;44.788;10.334;2023-10-19T04:51:59;12.76;85.86
28175;SHT30;59417;44.788;10.334;2023-10-19T04:54:25;12.68;86.19
28175;SHT30;59417;44.788;10.334;2023-10-19T04:56:50;12.70;86.08
28175;SHT30;59417;44.788;10.334;2023-10-19T04:59:18;12.79;85.64
28175;SHT30;59417;44.788;10.334;2023-10-19T05:01:46;12.75;85.82
28175;SHT30;59417;44.788;10.334;2023-10-19T05:04:11;12.76;85.90
28175;SHT30;59417;44.788;10.334;2023-10-19T05:06:38;12.89;85.65
28175;SHT30;59417;44.788;10.334;2023-10-19T05:09:04;12.80;85.83
28175;SHT30;59417;44.788;10.334;2023-10-19T05:11:33;12.95;84.61
28175;SHT30;59417;44.788;10.334;2023-10-19T05:13:58;12.86;85.05
28175;SHT30;59417;44.788;10.334;2023-10-19T05:16:24;12.80;85.55
28175;SHT30;59417;44.788;10.334;2023-10-19T05:18:52;12.77;85.83
28175;SHT30;59417;44.788;10.334;2023-10-19T05:21:17;12.90;85.64
28175;SHT30;59417;44.788;10.334;2023-10-19T05:23:46;12.87;85.55
28175;SHT30;59417;44.788;10.334;2023-10-19T05:26:11;12.83;85.55
28175;SHT30;59417;44.788;10.334;2023-10-19T05:28:40;12.79;85.55
28175;SHT30;59417;44.788;10.334;2023-10-19T05:31:08;12.80;85.55
28175;SHT30;59417;44.788;10.334;2023-10-19T05:33:34;12.82;85.58
28175;SHT30;59417;44.788;10.334;2023-10-19T05:35:59;12.82;85.49
28175;SHT30;59417;44.788;10.334;2023-10-19T05:38:26;12.82;85.40
28175;SHT30;59417;44.788;10.334;2023-10-19T05:40:53;12.77;85.20
28175;SHT30;59417;44.788;10.334;2023-10-19T05:43:20;12.77;85.47
28175;SHT30;59417;44.788;10.334;2023-10-19T05:45:46;12.77;85.53
28175;SHT30;59417;44.788;10.334;2023-10-19T05:48:15;12.83;85.58
28175;SHT30;59417;44.788;10.334;2023-10-19T05:50:41;12.80;85.72
28175;SHT30;59417;44.788;10.334;2023-10-19T05:53:07;12.82;85.61
28175;SHT30;59417;44.788;10.334;2023-10-19T05:55:33;13.00;84.46
28175;SHT30;59417;44.788;10.334;2023-10-19T05:58:02;12.89;84.53
28175;SHT30;59417;44.788;10.334;2023-10-19T06:00:30;12.60;85.81
28175;SHT30;59417;44.788;10.334;2023-10-19T06:02:56;12.56;86.00
28175;SHT30;59417;44.788;10.334;2023-10-19T06:05:23;12.51;86.28
28175;SHT30;59417;44.788;10.334;2023-10-19T06:07:51;12.86;85.14
28175;SHT30;59417;44.788;10.334;2023-10-19T06:10:22;12.70;85.48
28175;SHT30;59417;44.788;10.334;2023-10-19T06:12:49;12.73;85.45
28175;SHT30;59417;44.788;10.334;2023-10-19T06:15:17;12.79;84.79
28175;SHT30;59417;44.788;10.334;2023-10-19T06:17:43;12.79;85.38
28175;SHT30;59417;44.788;10.334;2023-10-19T06:20:11;12.72;85.75
28175;SHT30;59417;44.788;10.334;2023-10-19T06:22:54;12.69;85.66
28175;SHT30;59417;44.788;10.334;2023-10-19T06:25:23;12.75;85.73
28175;SHT30;59417;44.788;10.334;2023-10-19T06:27:49;12.56;86.28
28175;SHT30;59417;44.788;10.334;2023-10-19T06:30:16;12.51;86.74
28175;SHT30;59417;44.788;10.334;2023-10-19T06:32:49;12.73;86.21
28175;SHT30;59417;44.788;10.334;2023-10-19T06:35:17;12.80;86.05
28175;SHT30;59417;44.788;10.334;2023-10-19T06:37:43;12.86;86.24
28175;SHT30;59417;44.788;10.334;2023-10-19T06:40:09;12.79;86.18
28175;SHT30;59417;44.788;10.334;2023-10-19T06:42:37;12.59;87.01
28175;SHT30;59417;44.788;10.334;2023-10-19T06:45:04;12.65;86.81
28175;SHT30;59417;44.788;10.334;2023-10-19T06:47:30;12.66;86.73
28175;SHT30;59417;44.788;10.334;2023-10-19T06:49:57;12.51;87.23
28175;SHT30;59417;44.788;10.334;2023-10-19T06:52:23;12.60;87.09
28175;SHT30;59417;44.788;10.334;2023-10-19T06:54:49;12.60;87.06
28175;SHT30;59417;44.788;10.334;2023-10-19T06:57:14;12.75;86.35
28175;SHT30;59417;44.788;10.334;2023-10-19T06:59:40;12.69;86.56
28175;SHT30;59417;44.788;10.334;2023-10-19T07:02:05;12.69;86.28
28175;SHT30;59417;44.788;10.334;2023-10-19T07:04:33;12.56;87.04
28175;SHT30;59417;44.788;10.334;2023-10-19T07:06:58;12.62;87.14
28175;SHT30;59417;44.788;10.334;2023-10-19T07:09:26;12.69;86.95
28175;SHT30;59417;44.788;10.334;2023-10-19T07:11:51;12.76;86.55
28175;SHT30;59417;44.788;10.334;2023-10-19T07:14:21;12.80;86.23
28175;SHT30;59417;44.788;10.334;2023-10-19T07:16:50;12.76;86.45
28175;SHT30;59417;44.788;10.334;2023-10-19T07:19:17;12.80;86.51
28175;SHT30;59417;44.788;10.334;2023-10-19T07:21:43;12.68;87.04
28175;SHT30;59417;44.788;10.334;2023-10-19T07:24:14;12.68;87.40
28175;SHT30;59417;44.788;10.334;2023-10-19T07:26:41;12.68;87.58
28175;SHT30;59417;44.788;10.334;2023-10-19T07:29:21;12.99;86.59
28175;SHT30;59417;44.788;10.334;2023-10-19T07:31:47;13.03;85.72
28175;SHT30;59417;44.788;10.334;2023-10-19T07:34:14;12.86;86.31
28175;SHT30;59417;44.788;10.334;2023-10-19T07:36:41;12.99;86.44
28175;SHT30;59417;44.788;10.334;2023-10-19T07:39:08;12.97;86.27
28175;SHT30;59417;44.788;10.334;2023-10-19T07:41:40;13.06;85.79
28175;SHT30;59417;44.788;10.334;2023-10-19T07:44:05;13.02;86.14
28175;SHT30;59417;44.788;10.334;2023-10-19T07:46:31;12.93;85.97
28175;SHT30;59417;44.788;10.334;2023-10-19T07:48:57;12.77;86.88
28175;SHT30;59417;44.788;10.334;2023-10-19T07:51:25;12.84;87.12
28175;SHT30;59417;44.788;10.334;2023-10-19T07:53:53;12.97;86.81
28175;SHT30;59417;44.788;10.334;2023-10-19T07:56:22;13.06;86.91
28175;SHT30;59417;44.788;10.334;2023-10-19T07:58:51;13.07;86.59
28175;SHT30;59417;44.788;10.334;2023-10-19T08:01:17;13.09;86.33
28175;SHT30;59417;44.788;10.334;2023-10-19T08:03:43;13.24;86.14
28175;SHT30;59417;44.788;10.334;2023-10-19T08:06:08;13.26;85.27
28175;SHT30;59417;44.788;10.334;2023-10-19T08:08:34;13.03;86.60
28175;SHT30;59417;44.788;10.334;2023-10-19T08:11:00;13.14;85.25
28175;SHT30;59417;44.788;10.334;2023-10-19T08:13:27;13.02;86.05
28175;SHT30;59417;44.788;10.334;2023-10-19T08:15:53;12.90;86.33
28175;SHT30;59417;44.788;10.334;2023-10-19T08:18:19;12.84;87.02
28175;SHT30;59417;44.788;10.334;2023-10-19T08:20:48;12.93;87.28
28175;SHT30;59417;44.788;10.334;2023-10-19T08:23:14;13.02;86.99
28175;SHT30;59417;44.788;10.334;2023-10-19T08:25:42;12.99;86.30
28175;SHT30;59417;44.788;10.334;2023-10-19T08:28:09;13.17;85.91
28175;SHT30;59417;44.788;10.334;2023-10-19T08:30:37;13.07;86.47
28175;SHT30;59417;44.788;10.334;2023-10-19T08:33:03;13.17;86.09
28175;SHT30;59417;44.788;10.334;2023-10-19T08:35:29;13.17;86.25
28175;SHT30;59417;44.788;10.334;2023-10-19T08:37:58;13.11;85.81
28175;SHT30;59417;44.788;10.334;2023-10-19T08:40:27;13.20;85.29
28175;SHT30;59417;44.788;10.334;2023-10-19T08:42:53;13.27;86.06
28175;SHT30;59417;44.788;10.334;2023-10-19T08:45:20;13.14;86.70
28175;SHT30;59417;44.788;10.334;2023-10-19T08:47:57;13.11;85.71
28175;SHT30;59417;44.788;10.334;2023-10-19T08:50:25;13.02;86.32
28175;SHT30;59417;44.788;10.334;2023-10-19T08:52:53;13.20;86.17
28175;SHT30;59417;44.788;10.334;2023-10-19T08:55:25;13.19;85.96
28175;SHT30;59417;44.788;10.334;2023-10-19T08:57:51;13.31;85.19
28175;SHT30;59417;44.788;10.334;2023-10-19T09:00:18;13.31;85.22
28175;SHT30;59417;44.788;10.334;2023-10-19T09:02:48;13.33;85.25
28175;SHT30;59417;44.788;10.334;2023-10-19T09:05:14;13.23;86.21
28175;SHT30;59417;44.788;10.334;2023-10-19T09:07:54;13.17;86.41
28175;SHT30;59417;44.788;10.334;2023-10-19T09:13:02;13.14;87.26
28175;SHT30;59417;44.788;10.334;2023-10-19T09:15:29;13.16;86.21
28175;SHT30;59417;44.788;10.334;2023-10-19T09:20:49;12.97;87.05
28175;SHT30;59417;44.788;10.334;2023-10-19T09:23:28;13.03;87.26
28175;SHT30;59417;44.788;10.334;2023-10-19T09:25:56;13.14;87.00
28175;SHT30;59417;44.788;10.334;2023-10-19T09:28:23;13.34;86.60
28175;SHT30;59417;44.788;10.334;2023-10-19T09:30:50;13.28;86.82
28175;SHT30;59417;44.788;10.334;2023-10-19T09:33:19;13.13;87.40
28175;SHT30;59417;44.788;10.334;2023-10-19T09:35:50;13.17;86.01
28175;SHT30;59417;44.788;10.334;2023-10-19T09:38:19;13.14;86.39
28175;SHT30;59417;44.788;10.334;2023-10-19T09:40:51;13.31;86.74
28175;SHT30;59417;44.788;10.334;2023-10-19T09:43:33;13.50;85.69
28175;SHT30;59417;44.788;10.334;2023-10-19T09:46:01;13.41;85.27
28175;SHT30;59417;44.788;10.334;2023-10-19T09:48:29;13.30;85.94
28175;SHT30;59417;44.788;10.334;2023-10-19T09:51:01;13.37;85.78
28175;SHT30;59417;44.788;10.334;2023-10-19T09:53:29;13.24;86.46
28175;SHT30;59417;44.788;10.334;2023-10-19T09:55:58;13.35;86.59
28175;SHT30;59417;44.788;10.334;2023-10-19T09:58:43;13.30;86.20
28175;SHT30;59417;44.788;10.334;2023-10-19T10:01:10;13.53;85.17
28175;SHT30;59417;44.788;10.334;2023-10-19T10:03:46;13.37;85.10
28175;SHT30;59417;44.788;10.334;2023-10-19T10:06:16;13.30;86.04
28175;SHT30;59417;44.788;10.334;2023-10-19T10:08:45;13.21;86.35
28175;SHT30;59417;44.788;10.334;2023-10-19T10:11:18;13.24;86.22
28175;SHT30;59417;44.788;10.334;2023-10-19T10:13:45;13.16;86.38
28175;SHT30;59417;44.788;10.334;2023-10-19T10:16:15;13.16;86.33
28175;SHT30;59417;44.788;10.334;2023-10-19T10:18:41;13.17;86.55
28175;SHT30;59417;44.788;10.334;2023-10-19T10:21:20;13.33;85.76
28175;SHT30;59417;44.788;10.334;2023-10-19T10:23:49;13.19;86.36
28175;SHT30;59417;44.788;10.334;2023-10-19T10:26:16;13.21;86.62
28175;SHT30;59417;44.788;10.334;2023-10-19T10:28:47;13.35;85.99
28175;SHT30;59417;44.788;10.334;2023-10-19T10:31:14;13.38;85.86
28175;SHT30;59417;44.788;10.334;2023-10-19T10:33:55;13.28;86.21
28175;SHT30;59417;44.788;10.334;2023-10-19T10:36:24;13.41;85.82
28175;SHT30;59417;44.788;10.334;2023-10-19T10:38:52;13.43;86.16
28175;SHT30;59417;44.788;10.334;2023-10-19T10:41:24;13.51;85.88
28175;SHT30;59417;44.788;10.334;2023-10-19T10:43:57;13.35;86.22
28175;SHT30;59417;44.788;10.334;2023-10-19T10:46:26;13.34;86.48
28175;SHT30;59417;44.788;10.334;2023-10-19T10:48:57;13.35;86.88
28175;SHT30;59417;44.788;10.334;2023-10-19T10:51:27;13.26;87.19
28175;SHT30;59417;44.788;10.334;2023-10-19T10:53:54;13.13;87.92
28175;SHT30;59417;44.788;10.334;2023-10-19T10:56:23;13.14;88.54
28175;SHT30;59417;44.788;10.334;2023-10-19T10:58:51;13.19;88.73
28175;SHT30;59417;44.788;10.334;2023-10-19T11:01:32;13.24;88.78
28175;SHT30;59417;44.788;10.334;2023-10-19T11:04:09;13.28;87.84
28175;SHT30;59417;44.788;10.334;2023-10-19T11:06:52;13.40;87.83
28175;SHT30;59417;44.788;10.334;2023-10-19T11:09:20;13.27;87.71
28175;SHT30;59417;44.788;10.334;2023-10-19T11:11:49;13.26;88.17
28175;SHT30;59417;44.788;10.334;2023-10-19T11:14:17;13.28;88.25
28175;SHT30;59417;44.788;10.334;2023-10-19T11:16:46;13.34;88.35
28175;SHT30;59417;44.788;10.334;2023-10-19T11:19:11;13.34;88.00
28175;SHT30;59417;44.788;10.334;2023-10-19T11:21:37;13.51;87.17
28175;SHT30;59417;44.788;10.334;2023-10-19T11:24:03;13.59;85.83
28175;SHT30;59417;44.788;10.334;2023-10-19T11:26:29;13.59;86.16
28175;SHT30;59417;44.788;10.334;2023-10-19T11:29:00;13.47;86.75
28175;SHT30;59417;44.788;10.334;2023-10-19T11:31:27;13.44;87.19
28175;SHT30;59417;44.788;10.334;2023-10-19T11:33:56;13.45;87.59
28175;SHT30;59417;44.788;10.334;2023-10-19T11:36:22;13.51;87.18
28175;SHT30;59417;44.788;10.334;2023-10-19T11:38:51;13.57;86.25
28175;SHT30;59417;44.788;10.334;2023-10-19T11:41:17;13.47;86.39
28175;SHT30;59417;44.788;10.334;2023-10-19T11:43:46;13.44;86.90
28175;SHT30;59417;44.788;10.334;2023-10-19T11:46:12;13.61;87.16
28175;SHT30;59417;44.788;10.334;2023-10-19T11:48:40;13.54;87.25
28175;SHT30;59417;44.788;10.334;2023-10-19T11:51:11;13.59;86.55
28175;SHT30;59417;44.788;10.334;2023-10-19T11:53:38;13.70;86.32
28175;SHT30;59417;44.788;10.334;2023-10-19T11:56:09;13.65;86.82
28175;SHT30;59417;44.788;10.334;2023-10-19T11:58:36;13.57;87.15
28175;SHT30;59417;44.788;10.334;2023-10-19T12:01:09;13.55;87.18
28175;SHT30;59417;44.788;10.334;2023-10-19T12:03:38;13.70;86.21
28175;SHT30;59417;44.788;10.334;2023-10-19T12:06:10;13.75;86.09
28175;SHT30;59417;44.788;10.334;2023-10-19T12:08:37;13.70;86.85
28175;SHT30;59417;44.788;10.334;2023-10-19T12:11:08;13.79;86.27
28175;SHT30;59417;44.788;10.334;2023-10-19T12:13:44;13.77;86.02
28175;SHT30;59417;44.788;10.334;2023-10-19T12:16:14;13.68;86.44
28175;SHT30;59417;44.788;10.334;2023-10-19T12:18:43;13.74;86.61
28175;SHT30;59417;44.788;10.334;2023-10-19T12:21:09;13.84;86.77
28175;SHT30;59417;44.788;10.334;2023-10-19T12:23:41;13.79;86.92
28175;SHT30;59417;44.788;10.334;2023-10-19T12:26:07;13.78;87.52
28175;SHT30;59417;44.788;10.334;2023-10-19T12:28:41;13.70;87.18
28175;SHT30;59417;44.788;10.334;2023-10-19T12:31:08;13.54;87.31
28175;SHT30;59417;44.788;10.334;2023-10-19T12:33:35;13.59;87.93
28175;SHT30;59417;44.788;10.334;2023-10-19T12:36:04;13.45;88.53
28175;SHT30;59417;44.788;10.334;2023-10-19T12:38:50;13.50;89.35
28175;SHT30;59417;44.788;10.334;2023-10-19T12:41:21;13.64;89.14
28175;SHT30;59417;44.788;10.334;2023-10-19T12:43:47;13.62;88.30
28175;SHT30;59417;44.788;10.334;2023-10-19T12:46:16;13.72;88.15
28175;SHT30;59417;44.788;10.334;2023-10-19T12:48:42;13.77;87.65
28175;SHT30;59417;44.788;10.334;2023-10-19T12:51:08;13.89;87.14
28175;SHT30;59417;44.788;10.334;2023-10-19T12:53:37;13.84;86.57
28175;SHT30;59417;44.788;10.334;2023-10-19T12:56:04;13.71;86.99
28175;SHT30;59417;44.788;10.334;2023-10-19T12:58:30;13.68;87.86
28175;SHT30;59417;44.788;10.334;2023-10-19T13:00:57;13.82;86.49
28175;SHT30;59417;44.788;10.334;2023-10-19T13:03:27;13.74;86.81
28175;SHT30;59417;44.788;10.334;2023-10-19T13:05:56;13.55;87.89
28175;SHT30;59417;44.788;10.334;2023-10-19T13:08:23;13.64;88.20
28175;SHT30;59417;44.788;10.334;2023-10-19T13:10:53;13.78;87.67
28175;SHT30;59417;44.788;10.334;2023-10-19T13:13:19;13.62;87.90
28175;SHT30;59417;44.788;10.334;2023-10-19T13:15:50;13.61;88.25
28175;SHT30;59417;44.788;10.334;2023-10-19T13:18:17;13.72;87.82
28175;SHT30;59417;44.788;10.334;2023-10-19T13:20:47;13.61;88.61
28175;SHT30;59417;44.788;10.334;2023-10-19T13:23:14;13.72;88.11
28175;SHT30;59417;44.788;10.334;2023-10-19T13:25:45;13.58;89.08
28175;SHT30;59417;44.788;10.334;2023-10-19T13:28:23;13.53;89.73
28175;SHT30;59417;44.788;10.334;2023-10-19T13:30:52;13.58;89.78
28175;SHT30;59417;44.788;10.334;2023-10-19T13:33:20;13.62;89.80
28175;SHT30;59417;44.788;10.334;2023-10-19T13:35:49;13.74;89.14
28175;SHT30;59417;44.788;10.334;2023-10-19T13:38:16;13.81;88.42
28175;SHT30;59417;44.788;10.334;2023-10-19T13:40:43;13.77;88.98
28175;SHT30;59417;44.788;10.334;2023-10-19T13:43:10;13.61;89.51
28175;SHT30;59417;44.788;10.334;2023-10-19T13:45:41;13.84;89.33
28175;SHT30;59417;44.788;10.334;2023-10-19T13:48:09;13.78;89.11
28175;SHT30;59417;44.788;10.334;2023-10-19T13:50:47;13.65;89.84
28175;SHT30;59417;44.788;10.334;2023-10-19T13:53:33;13.72;90.11
28175;SHT30;59417;44.788;10.334;2023-10-19T13:55:59;13.72;89.66
28175;SHT30;59417;44.788;10.334;2023-10-19T13:58:25;13.75;89.16
28175;SHT30;59417;44.788;10.334;2023-10-19T14:00:53;13.81;89.05
28175;SHT30;59417;44.788;10.334;2023-10-19T14:03:21;13.86;88.90
28175;SHT30;59417;44.788;10.334;2023-10-19T14:05:47;13.71;89.34
28175;SHT30;59417;44.788;10.334;2023-10-19T14:08:13;13.61;89.73
28175;SHT30;59417;44.788;10.334;2023-10-19T14:10:39;13.62;90.24
28175;SHT30;59417;44.788;10.334;2023-10-19T14:13:07;13.68;90.34
28175;SHT30;59417;44.788;10.334;2023-10-19T14:15:33;13.65;90.19
28175;SHT30;59417;44.788;10.334;2023-10-19T14:17:59;13.86;89.38
28175;SHT30;59417;44.788;10.334;2023-10-19T14:20:28;13.72;89.58
28175;SHT30;59417;44.788;10.334;2023-10-19T14:23:01;13.71;89.64
28175;SHT30;59417;44.788;10.334;2023-10-19T14:25:30;13.61;90.19
28175;SHT30;59417;44.788;10.334;2023-10-19T14:27:56;13.66;90.26
28175;SHT30;59417;44.788;10.334;2023-10-19T14:30:28;13.59;90.64
28175;SHT30;59417;44.788;10.334;2023-10-19T14:32:55;13.78;89.81
28175;SHT30;59417;44.788;10.334;2023-10-19T14:35:23;13.64;90.03
28175;SHT30;59417;44.788;10.334;2023-10-19T14:37:51;13.75;89.60
28175;SHT30;59417;44.788;10.334;2023-10-19T14:40:22;13.66;89.67
28175;SHT30;59417;44.788;10.334;2023-10-19T14:42:53;13.59;89.97
28175;SHT30;59417;44.788;10.334;2023-10-19T14:45:27;13.88;88.96
28175;SHT30;59417;44.788;10.334;2023-10-19T14:47:57;13.68;89.02
28175;SHT30;59417;44.788;10.334;2023-10-19T14:50:23;13.57;89.67
28175;SHT30;59417;44.788;10.334;2023-10-19T14:52:51;13.61;90.07
28175;SHT30;59417;44.788;10.334;2023-10-19T14:55:17;13.62;90.27
28175;SHT30;59417;44.788;10.334;2023-10-19T14:57:46;13.64;90.40
28175;SHT30;59417;44.788;10.334;2023-10-19T15:00:15;13.70;90.31
28175;SHT30;59417;44.788;10.334;2023-10-19T15:02:49;13.72;90.10
28175;SHT30;59417;44.788;10.334;2023-10-19T15:05:20;13.64;89.95
28175;SHT30;59417;44.788;10.334;2023-10-19T15:07:48;13.66;90.03
28175;SHT30;59417;44.788;10.334;2023-10-19T15:10:18;13.70;89.97
28175;SHT30;59417;44.788;10.334;2023-10-19T15:12:44;13.81;89.77
28175;SHT30;59417;44.788;10.334;2023-10-19T15:15:10;13.85;88.59
28175;SHT30;59417;44.788;10.334;2023-10-19T15:17:39;13.74;89.28
28175;SHT30;59417;44.788;10.334;2023-10-19T15:20:06;13.72;89.48
28175;SHT30;59417;44.788;10.334;2023-10-19T15:22:32;13.77;89.68
28175;SHT30;59417;44.788;10.334;2023-10-19T15:24:59;13.81;89.35
28175;SHT30;59417;44.788;10.334;2023-10-19T15:27:24;13.79;89.42
28175;SHT30;59417;44.788;10.334;2023-10-19T15:29:50;13.65;89.36
28175;SHT30;59417;44.788;10.334;2023-10-19T15:32:16;13.70;89.49
28175;SHT30;59417;44.788;10.334;2023-10-19T15:34:42;13.66;89.66
28175;SHT30;59417;44.788;10.334;2023-10-19T15:37:09;13.71;89.56
28175;SHT30;59417;44.788;10.334;2023-10-19T15:39:35;13.71;89.77